sensor_id;sensor_type;location;lat;lon;timestamp;temperature;humidity
21635;DHT22;10979;48.306;9.830;2023-03-03T00:00:11;1.40;99.90
21635;DHT22;10979;48.306;9.830;2023-03-03T00:02:36;1.40;99.90
21635;DHT22;10979;48.306;9.830;2023-03-03T00:05:02;1.40;99.90
21635;DHT22;10979;48.306;9.830;2023-03-03T00:07:27;1.40;99.90
21635;DHT22;10979;48.306;9.830;2023-03-03T00:09:53;1.40;99.90
21635;DHT22;10979;48.306;9.830;2023-03-03T00:12:24;1.40;99.90
21635;DHT22;10979;48.306;9.830;2023-03-03T00:14:50;1.40;99.90
21635;DHT22;10979;48.306;9.830;2023-03-03T00:17:25;1.40;99.90
21635;DHT22;10979;48.306;9.830;2023-03-03T00:19:51;1.40;99.90
21635;DHT22;10979;48.306;9.830;2023-03-03T00:22:30;1.40;99.90
21635;DHT22;10979;48.306;9.830;2023-03-03T00:25:23;1.50;99.90
21635;DHT22;10979;48.306;9.830;2023-03-03T00:27:49;1.50;99.90
21635;DHT22;10979;48.306;9.830;2023-03-03T00:30:25;1.40;99.90
21635;DHT22;10979;48.306;9.830;2023-03-03T00:32:53;1.40;99.90
21635;DHT22;10979;48.306;9.830;2023-03-03T00:35:32;1.40;99.90
21635;DHT22;10979;48.306;9.830;2023-03-03T00:38:18;1.50;99.90
21635;DHT22;10979;48.306;9.830;2023-03-03T00:40:45;1.50;99.90
21635;DHT22;10979;48.306;9.830;2023-03-03T00:43:22;1.50;99.90
21635;DHT22;10979;48.306;9.830;2023-03-03T00:45:55;1.50;99.90
21635;DHT22;10979;48.306;9.830;2023-03-03T00:48:28;1.40;99.90
21635;DHT22;10979;48.306;9.830;2023-03-03T00:51:01;1.40;99.90
21635;DHT22;10979;48.306;9.830;2023-03-03T00:53:30;1.50;99.90
21635;DHT22;10979;48.306;9.830;2023-03-03T00:55:57;1.50;99.90
21635;DHT22;10979;48.306;9.830;2023-03-03T00:58:23;1.50;99.90
21635;DHT22;10979;48.306;9.830;2023-03-03T01:00:51;1.50;99.90
21635;DHT22;10979;48.306;9.830;2023-03-03T01:03:20;1.50;99.90
21635;DHT22;10979;48.306;9.830;2023-03-03T01:05:46;1.50;99.90
21635;DHT22;10979;48.306;9.830;2023-03-03T01:08:13;1.50;99.90
21635;DHT22;10979;48.306;9.830;2023-03-03T01:10:43;1.50;99.90
21635;DHT22;10979;48.306;9.830;2023-03-03T01:13:10;1.50;99.90
21635;DHT22;10979;48.306;9.830;2023-03-03T01:15:37;1.50;99.90
21635;DHT22;10979;48.306;9.830;2023-03-03T01:18:03;1.50;99.90
21635;DHT22;10979;48.306;9.830;2023-03-03T01:20:29;1.50;99.90
21635;DHT22;10979;48.306;9.830;2023-03-03T01:22:55;1.50;99.90
21635;DHT22;10979;48.306;9.830;2023-03-03T01:25:20;1.50;99.90
21635;DHT22;10979;48.306;9.830;2023-03-03T01:27:46;1.50;99.90
21635;DHT22;10979;48.306;9.830;2023-03-03T01:30:12;1.50;99.90
21635;DHT22;10979;48.306;9.830;2023-03-03T01:32:37;1.50;99.90
21635;DHT22;10979;48.306;9.830;2023-03-03T01:35:03;1.50;99.90
21635;DHT22;10979;48.306;9.830;2023-03-03T01:37:29;1.50;99.90
21635;DHT22;10979;48.306;9.830;2023-03-03T01:39:55;1.50;99.90
21635;DHT22;10979;48.306;9.830;2023-03-03T01:42:21;1.50;99.90
21635;DHT22;10979;48.306;9.830;2023-03-03T01:44:47;1.50;99.90
21635;DHT22;10979;48.306;9.830;2023-03-03T01:47:27;1.50;99.90
21635;DHT22;10979;48.306;9.830;2023-03-03T01:50:08;1.60;99.90
21635;DHT22;10979;48.306;9.830;2023-03-03T01:52:41;1.60;99.90
21635;DHT22;10979;48.306;9.830;2023-03-03T01:55:15;1.50;99.90
21635;DHT22;10979;48.306;9.830;2023-03-03T01:57:46;1.50;99.90
21635;DHT22;10979;48.306;9.830;2023-03-03T02:00:13;1.50;99.90
21635;DHT22;10979;48.306;9.830;2023-03-03T02:02:40;1.50;99.90
21635;DHT22;10979;48.306;9.830;2023-03-03T02:05:07;1.50;99.90
21635;DHT22;10979;48.306;9.830;2023-03-03T02:07:33;1.50;99.90
21635;DHT22;10979;48.306;9.830;2023-03-03T02:10:04;1.50;99.90
21635;DHT22;10979;48.306;9.830;2023-03-03T02:15:01;1.50;99.90
21635;DHT22;10979;48.306;9.830;2023-03-03T02:17:26;1.50;99.90
21635;DHT22;10979;48.306;9.830;2023-03-03T02:20:12;1.50;99.90
21635;DHT22;10979;48.306;9.830;2023-03-03T02:23:06;1.50;99.90
21635;DHT22;10979;48.306;9.830;2023-03-03T02:31:45;1.50;99.90
21635;DHT22;10979;48.306;9.830;2023-03-03T02:34:11;1.50;99.90
21635;DHT22;10979;48.306;9.830;2023-03-03T02:36:38;1.40;99.90
21635;DHT22;10979;48.306;9.830;2023-03-03T02:41:40;1.40;99.90
21635;DHT22;10979;48.306;9.830;2023-03-03T02:44:15;1.40;99.90
21635;DHT22;10979;48.306;9.830;2023-03-03T02:46:43;1.30;99.90
21635;DHT22;10979;48.306;9.830;2023-03-03T02:49:12;1.30;99.90
21635;DHT22;10979;48.306;9.830;2023-03-03T02:51:39;1.30;99.90
21635;DHT22;10979;48.306;9.830;2023-03-03T02:54:05;1.30;99.90
21635;DHT22;10979;48.306;9.830;2023-03-03T02:56:31;1.30;99.90
21635;DHT22;10979;48.306;9.830;2023-03-03T02:58:57;1.30;99.90
21635;DHT22;10979;48.306;9.830;2023-03-03T03:01:23;1.30;99.90
21635;DHT22;10979;48.306;9.830;2023-03-03T03:03:49;1.30;99.90
21635;DHT22;10979;48.306;9.830;2023-03-03T03:06:14;1.30;99.90
21635;DHT22;10979;48.306;9.830;2023-03-03T03:08:40;1.30;99.90
21635;DHT22;10979;48.306;9.830;2023-03-03T03:11:06;1.30;99.90
21635;DHT22;10979;48.306;9.830;2023-03-03T03:13:32;1.30;99.90
21635;DHT22;10979;48.306;9.830;2023-03-03T03:15:58;1.30;99.90
21635;DHT22;10979;48.306;9.830;2023-03-03T03:18:24;1.30;99.90
21635;DHT22;10979;48.306;9.830;2023-03-03T03:20:50;1.30;99.90
21635;DHT22;10979;48.306;9.830;2023-03-03T03:23:16;1.30;99.90
21635;DHT22;10979;48.306;9.830;2023-03-03T03:25:41;1.30;99.90
21635;DHT22;10979;48.306;9.830;2023-03-03T03:28:11;1.30;99.90
21635;DHT22;10979;48.306;9.830;2023-03-03T03:30:38;1.30;99.90
21635;DHT22;10979;48.306;9.830;2023-03-03T03:33:04;1.30;99.90
21635;DHT22;10979;48.306;9.830;2023-03-03T03:35:31;1.30;99.90
21635;DHT22;10979;48.306;9.830;2023-03-03T03:37:56;1.30;99.90
21635;DHT22;10979;48.306;9.830;2023-03-03T03:40:23;1.30;99.90
21635;DHT22;10979;48.306;9.830;2023-03-03T03:42:49;1.30;99.90
21635;DHT22;10979;48.306;9.830;2023-03-03T03:45:15;1.30;99.90
21635;DHT22;10979;48.306;9.830;2023-03-03T03:47:41;1.30;99.90
21635;DHT22;10979;48.306;9.830;2023-03-03T03:50:07;1.40;99.90
21635;DHT22;10979;48.306;9.830;2023-03-03T03:52:33;1.40;99.90
21635;DHT22;10979;48.306;9.830;2023-03-03T03:54:59;1.30;99.90
21635;DHT22;10979;48.306;9.830;2023-03-03T03:57:25;1.40;99.90
21635;DHT22;10979;48.306;9.830;2023-03-03T03:59:51;1.40;99.90
21635;DHT22;10979;48.306;9.830;2023-03-03T04:02:17;1.30;99.90
21635;DHT22;10979;48.306;9.830;2023-03-03T04:04:42;1.40;99.90
21635;DHT22;10979;48.306;9.830;2023-03-03T04:07:08;1.30;99.90
21635;DHT22;10979;48.306;9.830;2023-03-03T04:09:33;1.40;99.90
21635;DHT22;10979;48.306;9.830;2023-03-03T04:11:59;1.30;99.90
21635;DHT22;10979;48.306;9.830;2023-03-03T04:14:25;1.40;99.90
21635;DHT22;10979;48.306;9.830;2023-03-03T04:16:50;1.40;99.90
21635;DHT22;10979;48.306;9.830;2023-03-03T04:19:16;1.40;99.90
21635;DHT22;10979;48.306;9.830;2023-03-03T04:21:41;1.30;99.90
21635;DHT22;10979;48.306;9.830;2023-03-03T04:24:07;1.30;99.90
21635;DHT22;10979;48.306;9.830;2023-03-03T04:26:33;1.30;99.90
21635;DHT22;10979;48.306;9.830;2023-03-03T04:28:58;1.30;99.90
21635;DHT22;10979;48.306;9.830;2023-03-03T04:31:24;1.30;99.90
21635;DHT22;10979;48.306;9.830;2023-03-03T04:33:51;1.30;99.90
21635;DHT22;10979;48.306;9.830;2023-03-03T04:36:18;1.30;99.90
21635;DHT22;10979;48.306;9.830;2023-03-03T04:38:44;1.30;99.90
21635;DHT22;10979;48.306;9.830;2023-03-03T04:41:10;1.30;99.90
21635;DHT22;10979;48.306;9.830;2023-03-03T04:43:35;1.30;99.90
21635;DHT22;10979;48.306;9.830;2023-03-03T04:46:01;1.30;99.90
21635;DHT22;10979;48.306;9.830;2023-03-03T04:48:27;1.40;99.90
21635;DHT22;10979;48.306;9.830;2023-03-03T04:50:53;1.30;99.90
21635;DHT22;10979;48.306;9.830;2023-03-03T04:53:18;1.30;99.90
21635;DHT22;10979;48.306;9.830;2023-03-03T04:55:44;1.30;99.90
21635;DHT22;10979;48.306;9.830;2023-03-03T04:58:09;1.30;99.90
21635;DHT22;10979;48.306;9.830;2023-03-03T05:00:35;1.30;99.90
21635;DHT22;10979;48.306;9.830;2023-03-03T05:03:01;1.30;99.90
21635;DHT22;10979;48.306;9.830;2023-03-03T05:05:27;1.30;99.90
21635;DHT22;10979;48.306;9.830;2023-03-03T05:07:52;1.30;99.90
21635;DHT22;10979;48.306;9.830;2023-03-03T05:10:18;1.30;99.90
21635;DHT22;10979;48.306;9.830;2023-03-03T05:12:45;1.30;99.90
21635;DHT22;10979;48.306;9.830;2023-03-03T05:15:11;1.30;99.90
21635;DHT22;10979;48.306;9.830;2023-03-03T05:17:36;1.30;99.90
21635;DHT22;10979;48.306;9.830;2023-03-03T05:20:03;1.30;99.90
21635;DHT22;10979;48.306;9.830;2023-03-03T05:22:30;1.30;99.90
21635;DHT22;10979;48.306;9.830;2023-03-03T05:24:55;1.30;99.90
21635;DHT22;10979;48.306;9.830;2023-03-03T05:27:22;1.30;99.90
21635;DHT22;10979;48.306;9.830;2023-03-03T05:29:47;1.30;99.90
21635;DHT22;10979;48.306;9.830;2023-03-03T05:32:13;1.30;99.90
21635;DHT22;10979;48.306;9.830;2023-03-03T05:34:39;1.30;99.90
21635;DHT22;10979;48.306;9.830;2023-03-03T05:37:04;1.30;99.90
21635;DHT22;10979;48.306;9.830;2023-03-03T05:39:31;1.30;99.90
21635;DHT22;10979;48.306;9.830;2023-03-03T05:41:57;1.30;99.90
21635;DHT22;10979;48.306;9.830;2023-03-03T05:44:22;1.30;99.90
21635;DHT22;10979;48.306;9.830;2023-03-03T05:46:48;1.30;99.90
21635;DHT22;10979;48.306;9.830;2023-03-03T05:49:13;1.30;99.90
21635;DHT22;10979;48.306;9.830;2023-03-03T05:51:39;1.30;99.90
21635;DHT22;10979;48.306;9.830;2023-03-03T05:54:04;1.30;99.90
21635;DHT22;10979;48.306;9.830;2023-03-03T05:56:30;1.30;99.90
21635;DHT22;10979;48.306;9.830;2023-03-03T05:58:55;1.30;99.90
21635;DHT22;10979;48.306;9.830;2023-03-03T06:01:21;1.30;99.90
21635;DHT22;10979;48.306;9.830;2023-03-03T06:03:46;1.30;99.90
21635;DHT22;10979;48.306;9.830;2023-03-03T06:06:12;1.30;99.90
21635;DHT22;10979;48.306;9.830;2023-03-03T06:08:38;1.30;99.90
21635;DHT22;10979;48.306;9.830;2023-03-03T06:11:04;1.40;99.90
21635;DHT22;10979;48.306;9.830;2023-03-03T06:13:29;1.40;99.90
21635;DHT22;10979;48.306;9.830;2023-03-03T06:15:55;1.40;99.90
21635;DHT22;10979;48.306;9.830;2023-03-03T06:18:20;1.40;99.90
21635;DHT22;10979;48.306;9.830;2023-03-03T06:20:50;1.40;99.90
21635;DHT22;10979;48.306;9.830;2023-03-03T06:23:16;1.50;99.90
21635;DHT22;10979;48.306;9.830;2023-03-03T06:25:42;1.50;99.90
21635;DHT22;10979;48.306;9.830;2023-03-03T06:28:08;1.50;99.90
21635;DHT22;10979;48.306;9.830;2023-03-03T06:30:34;1.50;99.90
21635;DHT22;10979;48.306;9.830;2023-03-03T06:33:00;1.50;99.90
21635;DHT22;10979;48.306;9.830;2023-03-03T06:35:26;1.60;99.90
21635;DHT22;10979;48.306;9.830;2023-03-03T06:37:51;1.50;99.90
21635;DHT22;10979;48.306;9.830;2023-03-03T06:40:17;1.50;99.90
21635;DHT22;10979;48.306;9.830;2023-03-03T06:42:42;1.60;99.90
21635;DHT22;10979;48.306;9.830;2023-03-03T06:45:08;1.60;99.90
21635;DHT22;10979;48.306;9.830;2023-03-03T06:47:34;1.60;99.90
21635;DHT22;10979;48.306;9.830;2023-03-03T06:49:59;1.60;99.90
21635;DHT22;10979;48.306;9.830;2023-03-03T06:52:26;1.60;99.90
21635;DHT22;10979;48.306;9.830;2023-03-03T06:54:54;1.60;99.90
21635;DHT22;10979;48.306;9.830;2023-03-03T06:57:31;1.70;99.90
21635;DHT22;10979;48.306;9.830;2023-03-03T07:00:11;1.70;99.90
21635;DHT22;10979;48.306;9.830;2023-03-03T07:02:39;1.70;99.90
21635;DHT22;10979;48.306;9.830;2023-03-03T07:05:10;1.80;99.90
21635;DHT22;10979;48.306;9.830;2023-03-03T07:07:37;1.80;99.90
21635;DHT22;10979;48.306;9.830;2023-03-03T07:10:12;1.80;99.90
21635;DHT22;10979;48.306;9.830;2023-03-03T07:12:40;1.80;99.90
21635;DHT22;10979;48.306;9.830;2023-03-03T07:15:32;1.80;99.90
21635;DHT22;10979;48.306;9.830;2023-03-03T07:17:59;1.80;99.90
21635;DHT22;10979;48.306;9.830;2023-03-03T07:20:32;1.80;99.90
21635;DHT22;10979;48.306;9.830;2023-03-03T07:22:59;1.80;99.90
21635;DHT22;10979;48.306;9.830;2023-03-03T07:27:57;1.90;99.90
21635;DHT22;10979;48.306;9.830;2023-03-03T07:30:26;2.00;99.90
21635;DHT22;10979;48.306;9.830;2023-03-03T07:32:57;1.90;99.90
21635;DHT22;10979;48.306;9.830;2023-03-03T07:35:42;2.00;99.90
21635;DHT22;10979;48.306;9.830;2023-03-03T07:38:37;2.00;99.90
21635;DHT22;10979;48.306;9.830;2023-03-03T07:41:11;2.00;99.90
21635;DHT22;10979;48.306;9.830;2023-03-03T07:44:02;1.90;99.90
21635;DHT22;10979;48.306;9.830;2023-03-03T07:48:59;2.00;99.90
21635;DHT22;10979;48.306;9.830;2023-03-03T07:51:27;2.10;99.90
21635;DHT22;10979;48.306;9.830;2023-03-03T07:54:10;2.10;99.90
21635;DHT22;10979;48.306;9.830;2023-03-03T07:56:39;2.10;99.90
21635;DHT22;10979;48.306;9.830;2023-03-03T07:59:24;2.30;99.90
21635;DHT22;10979;48.306;9.830;2023-03-03T08:04:43;2.30;99.90
21635;DHT22;10979;48.306;9.830;2023-03-03T08:07:17;2.30;99.90
21635;DHT22;10979;48.306;9.830;2023-03-03T08:09:48;2.30;99.90
21635;DHT22;10979;48.306;9.830;2023-03-03T08:14:51;2.30;99.90
21635;DHT22;10979;48.306;9.830;2023-03-03T08:17:23;2.40;99.90
21635;DHT22;10979;48.306;9.830;2023-03-03T08:19:50;2.40;99.90
21635;DHT22;10979;48.306;9.830;2023-03-03T08:22:24;2.60;99.90
21635;DHT22;10979;48.306;9.830;2023-03-03T08:24:51;2.50;99.90
21635;DHT22;10979;48.306;9.830;2023-03-03T08:27:17;2.60;99.90
21635;DHT22;10979;48.306;9.830;2023-03-03T08:29:42;2.70;99.90
21635;DHT22;10979;48.306;9.830;2023-03-03T08:32:08;2.70;99.90
21635;DHT22;10979;48.306;9.830;2023-03-03T08:34:33;2.80;99.90
21635;DHT22;10979;48.306;9.830;2023-03-03T08:36:59;2.90;99.90
21635;DHT22;10979;48.306;9.830;2023-03-03T08:39:24;2.90;99.90
21635;DHT22;10979;48.306;9.830;2023-03-03T08:41:50;3.00;99.90
21635;DHT22;10979;48.306;9.830;2023-03-03T08:44:15;3.10;99.90
21635;DHT22;10979;48.306;9.830;2023-03-03T08:46:41;3.20;99.90
21635;DHT22;10979;48.306;9.830;2023-03-03T08:49:08;3.40;99.90
21635;DHT22;10979;48.306;9.830;2023-03-03T08:51:33;3.60;99.90
21635;DHT22;10979;48.306;9.830;2023-03-03T08:53:59;3.60;99.90
21635;DHT22;10979;48.306;9.830;2023-03-03T08:56:25;3.50;99.90
21635;DHT22;10979;48.306;9.830;2023-03-03T08:58:50;3.60;99.90
21635;DHT22;10979;48.306;9.830;2023-03-03T09:01:17;3.80;99.90
21635;DHT22;10979;48.306;9.830;2023-03-03T09:03:43;3.70;99.90
21635;DHT22;10979;48.306;9.830;2023-03-03T09:06:09;3.90;99.90
21635;DHT22;10979;48.306;9.830;2023-03-03T09:08:34;3.90;99.90
21635;DHT22;10979;48.306;9.830;2023-03-03T09:11:00;4.10;99.90
21635;DHT22;10979;48.306;9.830;2023-03-03T09:13:28;4.10;99.90
21635;DHT22;10979;48.306;9.830;2023-03-03T09:15:55;4.20;99.90
21635;DHT22;10979;48.306;9.830;2023-03-03T09:18:34;4.20;99.90
21635;DHT22;10979;48.306;9.830;2023-03-03T09:21:00;4.20;99.90
21635;DHT22;10979;48.306;9.830;2023-03-03T09:23:35;4.10;99.90
21635;DHT22;10979;48.306;9.830;2023-03-03T09:28:36;4.40;99.90
21635;DHT22;10979;48.306;9.830;2023-03-03T09:31:02;4.70;99.90
21635;DHT22;10979;48.306;9.830;2023-03-03T09:33:44;4.70;99.90
21635;DHT22;10979;48.306;9.830;2023-03-03T09:38:52;4.80;99.90
21635;DHT22;10979;48.306;9.830;2023-03-03T09:49:33;4.50;99.90
21635;DHT22;10979;48.306;9.830;2023-03-03T10:03:44;4.60;99.90
21635;DHT22;10979;48.306;9.830;2023-03-03T10:06:31;4.70;99.90
21635;DHT22;10979;48.306;9.830;2023-03-03T10:12:32;5.10;99.90
21635;DHT22;10979;48.306;9.830;2023-03-03T10:23:50;5.90;99.90
21635;DHT22;10979;48.306;9.830;2023-03-03T10:29:37;6.10;99.90
21635;DHT22;10979;48.306;9.830;2023-03-03T10:35:07;6.20;99.90
21635;DHT22;10979;48.306;9.830;2023-03-03T10:38:01;6.10;99.90
21635;DHT22;10979;48.306;9.830;2023-03-03T10:40:49;5.90;99.90
21635;DHT22;10979;48.306;9.830;2023-03-03T10:49:40;6.30;99.90
21635;DHT22;10979;48.306;9.830;2023-03-03T10:52:13;6.50;99.90
21635;DHT22;10979;48.306;9.830;2023-03-03T10:57:55;6.60;99.90
21635;DHT22;10979;48.306;9.830;2023-03-03T11:03:35;6.70;99.90
21635;DHT22;10979;48.306;9.830;2023-03-03T11:06:19;6.80;99.90
21635;DHT22;10979;48.306;9.830;2023-03-03T11:09:07;6.80;99.90
21635;DHT22;10979;48.306;9.830;2023-03-03T11:11:49;7.00;99.90
21635;DHT22;10979;48.306;9.830;2023-03-03T11:14:44;6.90;99.90
21635;DHT22;10979;48.306;9.830;2023-03-03T11:22:54;6.70;99.90
21635;DHT22;10979;48.306;9.830;2023-03-03T11:25:28;7.20;99.90
21635;DHT22;10979;48.306;9.830;2023-03-03T11:33:33;7.30;99.90
21635;DHT22;10979;48.306;9.830;2023-03-03T11:38:58;7.40;99.90
21635;DHT22;10979;48.306;9.830;2023-03-03T11:41:44;7.60;99.90
21635;DHT22;10979;48.306;9.830;2023-03-03T11:44:37;7.40;99.90
21635;DHT22;10979;48.306;9.830;2023-03-03T11:55:28;7.60;99.90
21635;DHT22;10979;48.306;9.830;2023-03-03T12:00:37;7.60;99.90
21635;DHT22;10979;48.306;9.830;2023-03-03T12:03:41;7.80;99.90
21635;DHT22;10979;48.306;9.830;2023-03-03T12:06:32;7.90;99.90
21635;DHT22;10979;48.306;9.830;2023-03-03T12:20:02;7.90;99.90
21635;DHT22;10979;48.306;9.830;2023-03-03T12:22:36;8.30;99.90
21635;DHT22;10979;48.306;9.830;2023-03-03T12:28:14;7.90;99.90
21635;DHT22;10979;48.306;9.830;2023-03-03T12:35:57;7.80;99.90
21635;DHT22;10979;48.306;9.830;2023-03-03T12:38:58;8.00;99.90
21635;DHT22;10979;48.306;9.830;2023-03-03T12:46:41;8.00;99.90
21635;DHT22;10979;48.306;9.830;2023-03-03T12:49:09;8.20;99.90
21635;DHT22;10979;48.306;9.830;2023-03-03T12:51:56;8.50;99.90
21635;DHT22;10979;48.306;9.830;2023-03-03T12:57:29;8.40;99.90
21635;DHT22;10979;48.306;9.830;2023-03-03T13:02:58;8.00;99.90
21635;DHT22;10979;48.306;9.830;2023-03-03T13:08:49;8.20;99.90
21635;DHT22;10979;48.306;9.830;2023-03-03T13:11:29;8.00;99.90
21635;DHT22;10979;48.306;9.830;2023-03-03T13:19:48;8.10;99.90
21635;DHT22;10979;48.306;9.830;2023-03-03T13:22:43;8.20;99.90
21635;DHT22;10979;48.306;9.830;2023-03-03T13:30:49;8.30;99.90
21635;DHT22;10979;48.306;9.830;2023-03-03T13:33:29;8.30;99.90
21635;DHT22;10979;48.306;9.830;2023-03-03T13:35:58;8.10;99.90
21635;DHT22;10979;48.306;9.830;2023-03-03T13:38:30;8.30;99.90
21635;DHT22;10979;48.306;9.830;2023-03-03T13:41:25;8.40;99.90
21635;DHT22;10979;48.306;9.830;2023-03-03T13:52:29;8.50;99.90
21635;DHT22;10979;48.306;9.830;2023-03-03T13:58:05;8.50;99.90
21635;DHT22;10979;48.306;9.830;2023-03-03T14:06:16;8.60;99.90
21635;DHT22;10979;48.306;9.830;2023-03-03T14:16:54;8.90;99.90
21635;DHT22;10979;48.306;9.830;2023-03-03T14:19:38;8.90;99.90
21635;DHT22;10979;48.306;9.830;2023-03-03T14:27:38;9.00;99.90
21635;DHT22;10979;48.306;9.830;2023-03-03T14:35:49;8.80;99.90
21635;DHT22;10979;48.306;9.830;2023-03-03T14:38:18;8.90;99.90
21635;DHT22;10979;48.306;9.830;2023-03-03T14:40:45;8.80;99.90
21635;DHT22;10979;48.306;9.830;2023-03-03T14:43:26;8.80;99.90
21635;DHT22;10979;48.306;9.830;2023-03-03T14:48:53;8.40;99.90
21635;DHT22;10979;48.306;9.830;2023-03-03T14:51:39;8.30;99.90
21635;DHT22;10979;48.306;9.830;2023-03-03T14:54:12;8.00;99.90
21635;DHT22;10979;48.306;9.830;2023-03-03T14:57:02;8.00;99.90
21635;DHT22;10979;48.306;9.830;2023-03-03T14:59:30;8.00;99.90
21635;DHT22;10979;48.306;9.830;2023-03-03T15:04:40;8.00;99.90
21635;DHT22;10979;48.306;9.830;2023-03-03T15:07:30;8.00;99.90
21635;DHT22;10979;48.306;9.830;2023-03-03T15:09:57;8.00;99.90
21635;DHT22;10979;48.306;9.830;2023-03-03T15:12:25;7.80;99.90
21635;DHT22;10979;48.306;9.830;2023-03-03T15:17:40;7.70;99.90
21635;DHT22;10979;48.306;9.830;2023-03-03T15:26:01;7.40;99.90
21635;DHT22;10979;48.306;9.830;2023-03-03T15:31:44;7.30;99.90
21635;DHT22;10979;48.306;9.830;2023-03-03T15:34:40;7.30;99.90
21635;DHT22;10979;48.306;9.830;2023-03-03T15:40:29;7.40;99.90
21635;DHT22;10979;48.306;9.830;2023-03-03T15:48:46;7.40;99.90
21635;DHT22;10979;48.306;9.830;2023-03-03T15:51:42;7.30;99.90
21635;DHT22;10979;48.306;9.830;2023-03-03T15:56:56;7.00;99.90
21635;DHT22;10979;48.306;9.830;2023-03-03T16:04:58;6.70;99.90
21635;DHT22;10979;48.306;9.830;2023-03-03T16:07:43;6.60;99.90
21635;DHT22;10979;48.306;9.830;2023-03-03T16:10:14;6.60;99.90
21635;DHT22;10979;48.306;9.830;2023-03-03T16:20:33;6.20;99.90
21635;DHT22;10979;48.306;9.830;2023-03-03T16:23:21;6.10;99.90
21635;DHT22;10979;48.306;9.830;2023-03-03T16:28:47;5.80;99.90
21635;DHT22;10979;48.306;9.830;2023-03-03T16:31:42;5.70;99.90
21635;DHT22;10979;48.306;9.830;2023-03-03T16:34:28;5.60;99.90
21635;DHT22;10979;48.306;9.830;2023-03-03T16:52:46;4.60;99.90
21635;DHT22;10979;48.306;9.830;2023-03-03T16:55:19;4.40;99.90
21635;DHT22;10979;48.306;9.830;2023-03-03T17:00:19;4.00;99.90
21635;DHT22;10979;48.306;9.830;2023-03-03T17:03:10;3.80;99.90
21635;DHT22;10979;48.306;9.830;2023-03-03T17:06:12;3.60;99.90
21635;DHT22;10979;48.306;9.830;2023-03-03T17:18:38;3.10;99.90
21635;DHT22;10979;48.306;9.830;2023-03-03T17:30:55;2.40;99.90
21635;DHT22;10979;48.306;9.830;2023-03-03T17:35:47;2.20;99.90
21635;DHT22;10979;48.306;9.830;2023-03-03T17:47:12;1.90;99.90
21635;DHT22;10979;48.306;9.830;2023-03-03T17:50:05;1.70;99.90
21635;DHT22;10979;48.306;9.830;2023-03-03T17:53:00;1.60;99.90
21635;DHT22;10979;48.306;9.830;2023-03-03T18:06:30;1.40;99.90
21635;DHT22;10979;48.306;9.830;2023-03-03T18:09:11;1.30;99.90
21635;DHT22;10979;48.306;9.830;2023-03-03T18:11:54;1.20;99.90
21635;DHT22;10979;48.306;9.830;2023-03-03T18:14:41;1.10;99.90
21635;DHT22;10979;48.306;9.830;2023-03-03T18:22:49;1.00;99.90
21635;DHT22;10979;48.306;9.830;2023-03-03T18:25:22;0.90;99.90
21635;DHT22;10979;48.306;9.830;2023-03-03T18:30:28;0.70;99.90
21635;DHT22;10979;48.306;9.830;2023-03-03T18:37:57;0.50;99.90
21635;DHT22;10979;48.306;9.830;2023-03-03T18:40:57;0.60;99.90
21635;DHT22;10979;48.306;9.830;2023-03-03T18:54:28;0.30;99.90
21635;DHT22;10979;48.306;9.830;2023-03-03T19:02:32;-0.20;99.90
21635;DHT22;10979;48.306;9.830;2023-03-03T19:05:07;-0.30;99.90
21635;DHT22;10979;48.306;9.830;2023-03-03T19:12:54;-0.10;99.90
21635;DHT22;10979;48.306;9.830;2023-03-03T19:20:42;-0.80;99.90
21635;DHT22;10979;48.306;9.830;2023-03-03T19:23:16;-0.90;99.90
21635;DHT22;10979;48.306;9.830;2023-03-03T19:25:42;-1.00;99.90
21635;DHT22;10979;48.306;9.830;2023-03-03T19:33:55;-0.90;99.90
21635;DHT22;10979;48.306;9.830;2023-03-03T19:36:35;-0.90;99.90
21635;DHT22;10979;48.306;9.830;2023-03-03T19:42:02;-0.70;99.90
21635;DHT22;10979;48.306;9.830;2023-03-03T19:47:38;-0.80;99.90
21635;DHT22;10979;48.306;9.830;2023-03-03T19:50:29;-0.80;99.90
21635;DHT22;10979;48.306;9.830;2023-03-03T19:56:08;-0.80;99.90
21635;DHT22;10979;48.306;9.830;2023-03-03T20:04:31;-0.90;99.90
21635;DHT22;10979;48.306;9.830;2023-03-03T20:15:46;-1.10;99.90
21635;DHT22;10979;48.306;9.830;2023-03-03T20:27:02;-1.00;99.90
21635;DHT22;10979;48.306;9.830;2023-03-03T20:29:36;-1.20;99.90
21635;DHT22;10979;48.306;9.830;2023-03-03T20:44:17;-1.30;99.90
21635;DHT22;10979;48.306;9.830;2023-03-03T20:52:41;-1.20;99.90
21635;DHT22;10979;48.306;9.830;2023-03-03T20:55:37;-1.20;99.90
21635;DHT22;10979;48.306;9.830;2023-03-03T20:58:24;-1.30;99.90
21635;DHT22;10979;48.306;9.830;2023-03-03T21:01:02;-1.60;99.90
21635;DHT22;10979;48.306;9.830;2023-03-03T21:03:43;-1.50;99.90
21635;DHT22;10979;48.306;9.830;2023-03-03T21:06:17;-1.30;99.90
21635;DHT22;10979;48.306;9.830;2023-03-03T21:15:30;-1.30;99.90
21635;DHT22;10979;48.306;9.830;2023-03-03T21:17:58;-1.30;99.90
21635;DHT22;10979;48.306;9.830;2023-03-03T21:20:28;-1.40;99.90
21635;DHT22;10979;48.306;9.830;2023-03-03T21:22:55;-1.50;99.90
21635;DHT22;10979;48.306;9.830;2023-03-03T21:28:29;-1.80;99.90
21635;DHT22;10979;48.306;9.830;2023-03-03T21:33:47;-1.80;99.90
21635;DHT22;10979;48.306;9.830;2023-03-03T21:38:40;-1.80;99.90
21635;DHT22;10979;48.306;9.830;2023-03-03T21:41:07;-2.00;99.90
21635;DHT22;10979;48.306;9.830;2023-03-03T21:43:33;-1.90;99.90
21635;DHT22;10979;48.306;9.830;2023-03-03T21:45:59;-1.90;99.90
21635;DHT22;10979;48.306;9.830;2023-03-03T21:48:25;-2.10;99.90
21635;DHT22;10979;48.306;9.830;2023-03-03T21:50:50;-2.00;99.90
21635;DHT22;10979;48.306;9.830;2023-03-03T21:53:16;-2.00;99.90
21635;DHT22;10979;48.306;9.830;2023-03-03T21:55:43;-2.00;99.90
21635;DHT22;10979;48.306;9.830;2023-03-03T21:58:13;-1.90;99.90
21635;DHT22;10979;48.306;9.830;2023-03-03T22:00:39;-1.90;99.90
21635;DHT22;10979;48.306;9.830;2023-03-03T22:03:04;-2.10;99.90
21635;DHT22;10979;48.306;9.830;2023-03-03T22:05:30;-2.00;99.90
21635;DHT22;10979;48.306;9.830;2023-03-03T22:07:55;-1.90;99.90
21635;DHT22;10979;48.306;9.830;2023-03-03T22:10:21;-2.10;99.90
21635;DHT22;10979;48.306;9.830;2023-03-03T22:12:47;-2.00;99.90
21635;DHT22;10979;48.306;9.830;2023-03-03T22:15:12;-2.20;99.90
21635;DHT22;10979;48.306;9.830;2023-03-03T22:17:38;-2.10;99.90
21635;DHT22;10979;48.306;9.830;2023-03-03T22:20:05;-2.20;99.90
21635;DHT22;10979;48.306;9.830;2023-03-03T22:22:31;-2.30;99.90
21635;DHT22;10979;48.306;9.830;2023-03-03T22:24:56;-2.60;99.90
21635;DHT22;10979;48.306;9.830;2023-03-03T22:27:22;-2.60;99.90
21635;DHT22;10979;48.306;9.830;2023-03-03T22:29:47;-2.60;99.90
21635;DHT22;10979;48.306;9.830;2023-03-03T22:32:13;-2.60;99.90
21635;DHT22;10979;48.306;9.830;2023-03-03T22:34:39;-2.60;99.90
21635;DHT22;10979;48.306;9.830;2023-03-03T22:37:04;-2.50;99.90
21635;DHT22;10979;48.306;9.830;2023-03-03T22:39:30;-2.50;99.90
21635;DHT22;10979;48.306;9.830;2023-03-03T22:41:55;-2.50;99.90
21635;DHT22;10979;48.306;9.830;2023-03-03T22:44:22;-2.50;99.90
21635;DHT22;10979;48.306;9.830;2023-03-03T22:46:47;-2.50;99.90
21635;DHT22;10979;48.306;9.830;2023-03-03T22:49:13;-2.60;99.90